Time;durP1;ratioP1;P1;durP2;ratioP2;P2;SDS_P1;SDS_P2;PMS_P1;PMS_P2;Temp;Humidity;BMP_temperature;BMP_pressure;BME280_temperature;BME280_humidity;BME280_pressure;Samples;Min_cycle;Max_cycle;Signal;HPM_P1;HPM_P2
2022/05/17 00:00:08;;;;;;;5.33;2.30;;;;;;;11.44;56.19;99319.55;1717283;83;20959;-69
2022/05/17 00:02:37;;;;;;;4.15;2.02;;;;;;;11.45;56.34;99318.52;1716718;83;21422;-69
2022/05/17 00:05:05;;;;;;;2.80;1.90;;;;;;;11.47;56.33;99320.00;1715022;83;21188;-68
2022/05/17 00:07:32;;;;;;;2.83;2.05;;;;;;;11.44;56.47;99318.22;1717262;83;21508;-68
2022/05/17 00:09:59;;;;;;;3.08;2.05;;;;;;;11.42;56.56;99309.59;1717333;83;20947;-68
2022/05/17 00:12:25;;;;;;;4.20;2.30;;;;;;;11.45;56.62;99311.37;1716553;83;21014;-69
2022/05/17 00:14:52;;;;;;;4.08;1.70;;;;;;;11.46;56.67;99306.38;1717146;83;20895;-70
2022/05/17 00:17:20;;;;;;;3.30;2.15;;;;;;;11.43;56.79;99305.90;1713548;83;21241;-68
2022/05/17 00:19:48;;;;;;;3.35;2.33;;;;;;;11.43;56.83;99307.23;1715098;83;20986;-67
2022/05/17 00:22:15;;;;;;;3.92;2.02;;;;;;;11.40;56.88;99295.59;1716833;83;20944;-68
2022/05/17 00:24:42;;;;;;;3.47;2.70;;;;;;;11.39;56.65;99295.30;1717196;83;21010;-70
2022/05/17 00:27:08;;;;;;;5.03;2.37;;;;;;;11.38;56.58;99298.95;1716843;83;21086;-68
2022/05/17 00:29:35;;;;;;;4.97;2.83;;;;;;;11.40;56.56;99299.09;1709439;83;21226;-69
2022/05/17 00:32:03;;;;;;;3.75;2.40;;;;;;;11.39;56.54;99292.63;1727595;83;20919;-69
2022/05/17 00:34:31;;;;;;;4.05;2.58;;;;;;;11.41;56.49;99294.11;1687973;83;20973;-68
2022/05/17 00:36:58;;;;;;;2.98;2.30;;;;;;;11.42;56.35;99290.41;1680574;84;21492;-68
2022/05/17 00:39:24;;;;;;;6.37;2.90;;;;;;;11.46;56.25;99289.56;1658187;83;21185;-68
2022/05/17 00:41:50;;;;;;;3.62;2.70;;;;;;;11.49;56.21;99287.38;1649438;85;21190;-68
2022/05/17 00:47:27;;;;;;;3.80;3.17;;;;;;;11.54;56.04;99282.33;1668242;84;20953;-68
2022/05/17 00:50:27;;;;;;;4.78;3.58;;;;;;;11.59;55.90;99283.95;1653616;85;20994;-68
2022/05/17 00:53:01;;;;;;;4.42;3.67;;;;;;;11.62;55.66;99286.25;1668154;85;20910;-67
2022/05/17 00:55:42;;;;;;;5.25;4.75;;;;;;;11.64;55.49;99279.40;1675811;85;21219;-69
2022/05/17 00:58:17;;;;;;;6.97;4.97;;;;;;;11.64;55.35;99273.56;1681257;84;20974;-70
2022/05/17 01:00:51;;;;;;;5.72;5.17;;;;;;;11.66;55.24;99275.54;1654927;84;21097;-68
2022/05/17 01:03:18;;;;;;;5.55;5.05;;;;;;;11.67;55.02;99266.55;1649533;85;21029;-70
2022/05/17 01:05:46;;;;;;;6.28;5.05;;;;;;;11.67;54.80;99273.20;1649561;85;20921;-67
2022/05/17 01:08:14;;;;;;;6.92;5.12;;;;;;;11.69;54.59;99266.38;1660938;84;21161;-69
2022/05/17 01:10:41;;;;;;;6.33;4.45;;;;;;;11.68;54.47;99269.55;1670242;84;20961;-69
2022/05/17 01:15:54;;;;;;;4.33;3.70;;;;;;;11.69;54.10;99263.72;1668319;85;21302;-69
2022/05/17 01:18:20;;;;;;;5.40;4.17;;;;;;;11.67;53.95;99262.55;1667976;84;21522;-68
2022/05/17 01:20:47;;;;;;;5.75;3.37;;;;;;;11.64;53.85;99258.91;1671427;84;21106;-67
2022/05/17 01:23:13;;;;;;;4.60;2.45;;;;;;;11.63;53.72;99258.58;1649431;85;20967;-69
2022/05/17 01:25:45;;;;;;;5.15;3.08;;;;;;;11.66;53.62;99256.05;1649510;85;21009;-68
2022/05/17 01:28:18;;;;;;;3.67;2.60;;;;;;;11.65;53.51;99257.08;1670915;84;20962;-69
2022/05/17 01:30:45;;;;;;;5.60;2.47;;;;;;;11.62;53.53;99253.45;1664514;84;20899;-68
2022/05/17 01:33:14;;;;;;;2.62;2.27;;;;;;;11.58;53.55;99246.81;1676243;82;21140;-68
2022/05/17 01:35:41;;;;;;;2.50;2.30;;;;;;;11.60;53.44;99248.28;1702827;84;20955;-68
2022/05/17 01:38:08;;;;;;;2.75;2.02;;;;;;;11.58;53.39;99244.98;1702828;84;21035;-67
2022/05/17 01:40:34;;;;;;;3.10;2.55;;;;;;;11.58;53.29;99242.81;1700442;84;21484;-69
2022/05/17 01:43:01;;;;;;;4.95;2.95;;;;;;;11.54;53.41;99241.53;1699823;84;21002;-67
2022/05/17 01:45:29;;;;;;;3.17;2.12;;;;;;;11.52;53.40;99240.37;1699848;84;21488;-68
2022/05/17 01:47:55;;;;;;;3.40;2.47;;;;;;;11.50;53.57;99238.89;1699954;84;20962;-67
2022/05/17 01:50:22;;;;;;;2.70;2.50;;;;;;;11.46;53.99;99237.13;1699802;84;20990;-69
2022/05/17 01:52:49;;;;;;;4.72;2.52;;;;;;;11.43;54.24;99240.64;1699889;84;21523;-67
2022/05/17 01:55:17;;;;;;;3.00;2.70;;;;;;;11.37;54.50;99238.69;1699713;84;20939;-70
2022/05/17 01:57:43;;;;;;;4.70;2.72;;;;;;;11.26;54.77;99238.66;1700078;84;21110;-68
2022/05/17 02:00:13;;;;;;;2.42;2.12;;;;;;;11.22;55.07;99248.48;1699621;84;21002;-68
2022/05/17 02:02:39;;;;;;;6.12;3.33;;;;;;;11.15;55.56;99248.39;1699909;84;21530;-68
2022/05/17 02:05:07;;;;;;;4.50;2.22;;;;;;;11.09;55.57;99247.77;1699812;84;20955;-67
2022/05/17 02:07:35;;;;;;;3.12;2.20;;;;;;;11.07;55.55;99246.63;1702181;84;21035;-68
2022/05/17 02:10:04;;;;;;;3.77;2.50;;;;;;;11.05;55.67;99247.28;1703013;84;21102;-68
2022/05/17 02:12:30;;;;;;;5.80;2.60;;;;;;;11.02;55.89;99244.17;1703209;84;21537;-68
2022/05/17 02:14:57;;;;;;;5.42;2.50;;;;;;;11.00;55.98;99240.34;1703080;84;20928;-68
2022/05/17 02:17:23;;;;;;;3.52;2.22;;;;;;;10.99;56.02;99237.88;1700962;84;20923;-68
2022/05/17 02:19:50;;;;;;;5.90;2.37;;;;;;;10.97;55.95;99239.39;1696444;84;21454;-68
2022/05/17 02:22:18;;;;;;;4.30;2.40;;;;;;;10.98;55.95;99242.86;1692933;84;21174;-68
2022/05/17 02:24:45;;;;;;;4.08;2.37;;;;;;;10.98;55.98;99239.70;1699873;84;20942;-70
2022/05/17 02:27:12;;;;;;;6.83;2.50;;;;;;;10.97;56.03;99239.89;1699631;84;20954;-68
2022/05/17 02:29:40;;;;;;;7.30;2.40;;;;;;;10.97;56.11;99240.73;1700130;84;21042;-67
2022/05/17 02:32:07;;;;;;;6.87;3.55;;;;;;;10.95;56.35;99240.05;1699955;84;20884;-68
2022/05/17 02:34:36;;;;;;;3.30;2.45;;;;;;;10.92;56.68;99236.41;1699838;84;21274;-68
2022/05/17 02:37:04;;;;;;;4.70;3.83;;;;;;;10.88;56.92;99231.63;1699997;84;21036;-70
2022/05/17 02:39:32;;;;;;;5.58;3.05;;;;;;;10.83;57.00;99237.49;1700013;84;21567;-66
2022/05/17 02:41:58;;;;;;;6.72;3.12;;;;;;;10.84;56.85;99233.84;1702453;84;20995;-70
2022/05/17 02:44:25;;;;;;;3.47;2.50;;;;;;;10.80;56.87;99237.84;1703083;84;20940;-68
2022/05/17 02:46:52;;;;;;;2.77;2.35;;;;;;;10.77;57.01;99238.69;1703037;84;21263;-71
2022/05/17 02:49:19;;;;;;;3.00;2.20;;;;;;;10.68;57.33;99235.78;1702731;84;21039;-68
2022/05/17 02:51:46;;;;;;;5.70;2.70;;;;;;;10.65;57.55;99242.28;1700226;84;20919;-68
2022/05/17 02:54:13;;;;;;;4.28;2.90;;;;;;;10.67;57.65;99236.77;1699797;84;20880;-68
2022/05/17 02:56:39;;;;;;;6.70;3.52;;;;;;;10.71;57.98;99235.43;1700310;84;20940;-68
2022/05/17 02:59:06;;;;;;;3.58;2.35;;;;;;;10.75;58.24;99234.89;1703157;84;21157;-67
2022/05/17 03:01:32;;;;;;;3.35;2.37;;;;;;;10.86;58.31;99234.98;1702009;84;20947;-68
2022/05/17 03:04:00;;;;;;;4.10;2.90;;;;;;;10.98;58.20;99230.39;1699925;84;21071;-69
2022/05/17 03:06:27;;;;;;;3.62;2.95;;;;;;;11.15;57.85;99229.27;1699796;84;21053;-67
2022/05/17 03:08:54;;;;;;;5.37;2.33;;;;;;;11.36;57.45;99227.73;1699860;84;20963;-68
2022/05/17 03:11:21;;;;;;;5.12;2.80;;;;;;;11.57;56.71;99230.02;1700415;84;21289;-68
2022/05/17 03:13:47;;;;;;;3.62;2.50;;;;;;;11.83;56.53;99223.44;1699810;84;20959;-67
2022/05/17 03:16:15;;;;;;;6.00;3.37;;;;;;;12.11;56.09;99227.09;1699841;84;20918;-68
2022/05/17 03:18:42;;;;;;;4.60;2.70;;;;;;;12.37;55.41;99224.23;1699812;84;21018;-66
2022/05/17 03:21:09;;;;;;;6.25;2.40;;;;;;;12.66;54.99;99224.66;1717964;83;20966;-68
2022/05/17 03:23:36;;;;;;;3.42;2.50;;;;;;;12.96;53.89;99228.84;1671568;85;21242;-69
2022/05/17 03:26:03;;;;;;;3.17;2.35;;;;;;;13.20;53.18;99222.31;1720452;83;20895;-68
2022/05/17 03:28:30;;;;;;;2.90;2.58;;;;;;;13.43;52.18;99220.73;1685374;84;20995;-70
2022/05/17 03:30:57;;;;;;;3.30;2.72;;;;;;;13.59;51.45;99221.78;1671934;85;21042;-67
2022/05/17 03:33:24;;;;;;;2.92;2.62;;;;;;;13.74;51.00;99223.02;1721502;83;20946;-68
2022/05/17 03:35:50;;;;;;;4.85;4.35;;;;;;;13.88;50.56;99220.72;1685407;84;21257;-68
2022/05/17 03:38:18;;;;;;;6.20;4.25;;;;;;;14.03;50.47;99224.91;1685335;84;21504;-68
2022/05/17 03:40:45;;;;;;;4.28;3.87;;;;;;;14.26;50.22;99218.45;1685887;84;20999;-66
2022/05/17 03:43:11;;;;;;;5.67;4.85;;;;;;;14.54;49.76;99217.84;1687969;84;21048;-68
2022/05/17 03:45:38;;;;;;;9.48;4.15;;;;;;;14.87;49.25;99221.92;1690785;84;21014;-68
2022/05/17 03:48:05;;;;;;;4.83;4.42;;;;;;;15.21;48.30;99227.11;1690876;84;21173;-69
2022/05/17 03:50:33;;;;;;;4.72;3.80;;;;;;;15.57;48.00;99221.34;1726333;82;21528;-68
2022/05/17 03:53:01;;;;;;;3.70;2.95;;;;;;;16.02;47.15;99225.28;1727073;82;21039;-68
2022/05/17 03:55:28;;;;;;;4.12;2.20;;;;;;;16.53;46.00;99227.98;1731603;82;21063;-68
2022/05/17 03:57:55;;;;;;;3.92;2.15;;;;;;;17.04;44.36;99233.27;1728609;82;21451;-66
2022/05/17 04:00:22;;;;;;;2.87;2.10;;;;;;;17.58;43.05;99238.02;1672991;85;21151;-70
2022/05/17 04:02:49;;;;;;;4.22;2.05;;;;;;;18.11;41.72;99236.97;1725857;83;21530;-67
2022/05/17 04:05:17;;;;;;;2.98;1.62;;;;;;;18.58;40.47;99231.87;1692235;84;20877;-69
2022/05/17 04:07:43;;;;;;;3.50;1.95;;;;;;;18.99;38.91;99234.59;1703613;82;21460;-66
2022/05/17 04:10:13;;;;;;;4.30;1.90;;;;;;;19.35;37.99;99242.53;1726027;83;20949;-67
2022/05/17 04:12:41;;;;;;;2.60;1.62;;;;;;;19.69;37.29;99236.89;1703552;82;21486;-69
2022/05/17 04:15:11;;;;;;;6.15;1.55;;;;;;;19.92;36.34;99239.59;1725706;83;21035;-67
2022/05/17 04:17:37;;;;;;;3.27;1.15;;;;;;;20.09;35.88;99241.05;1703693;82;21021;-67
2022/05/17 04:20:06;;;;;;;1.57;1.30;;;;;;;20.14;35.51;99235.23;1721552;83;20963;-67
2022/05/17 04:22:33;;;;;;;3.25;1.85;;;;;;;20.03;35.20;99236.58;1685363;84;20911;-69
2022/05/17 04:24:59;;;;;;;5.08;1.45;;;;;;;19.82;35.32;99237.19;1672332;85;21104;-69
2022/05/17 04:27:27;;;;;;;2.22;1.27;;;;;;;19.55;35.24;99238.20;1720328;83;21181;-66
2022/05/17 04:29:53;;;;;;;1.57;1.47;;;;;;;19.32;35.45;99238.14;1685289;84;20905;-68
2022/05/17 04:32:20;;;;;;;2.80;1.50;;;;;;;19.13;35.65;99233.36;1722161;83;20934;-67
2022/05/17 04:34:46;;;;;;;1.27;1.10;;;;;;;19.08;35.80;99229.19;1680595;83;21425;-69
2022/05/17 04:37:13;;;;;;;1.65;1.10;;;;;;;19.12;35.90;99230.35;1728621;82;21148;-65
2022/05/17 04:39:40;;;;;;;2.72;1.32;;;;;;;19.30;35.70;99223.53;1729825;82;21588;-67
2022/05/17 04:42:09;;;;;;;1.75;1.22;;;;;;;19.57;35.41;99215.33;1730414;82;20943;-68
2022/05/17 04:44:36;;;;;;;2.47;1.30;;;;;;;19.96;34.80;99219.17;1730078;82;21445;-67
2022/05/17 04:47:03;;;;;;;4.08;2.70;;;;;;;20.47;33.91;99215.67;1728486;82;21050;-67
2022/05/17 04:49:31;;;;;;;4.60;2.77;;;;;;;21.04;33.23;99212.41;1729881;82;21249;-68
2022/05/17 04:51:57;;;;;;;6.72;2.90;;;;;;;21.61;32.16;99214.48;1730188;82;21583;-67
2022/05/17 04:54:24;;;;;;;2.92;1.60;;;;;;;22.17;31.34;99218.80;1721709;82;21064;-69
2022/05/17 04:56:50;;;;;;;2.12;1.50;;;;;;;22.62;30.38;99215.83;1732438;82;21002;-70
2022/05/17 04:59:17;;;;;;;1.70;1.60;;;;;;;22.96;29.53;99211.06;1732500;82;21182;-74
2022/05/17 05:01:46;;;;;;;3.80;1.25;;;;;;;23.33;29.00;99212.73;1732099;81;21256;-71
2022/05/17 05:04:13;;;;;;;2.70;1.45;;;;;;;23.73;28.61;99205.47;1731147;82;21019;-70
2022/05/17 05:06:39;;;;;;;1.32;0.93;;;;;;;24.08;28.17;99201.33;1730698;82;21499;-69
2022/05/17 05:09:07;;;;;;;1.98;1.10;;;;;;;24.40;27.63;99204.20;1744439;81;20998;-69
2022/05/17 05:11:35;;;;;;;1.98;1.10;;;;;;;24.73;27.13;99195.34;1731290;82;20930;-72
2022/05/17 05:14:01;;;;;;;1.30;0.75;;;;;;;25.03;26.84;99198.95;1732277;82;21250;-67
2022/05/17 05:16:28;;;;;;;2.17;0.98;;;;;;;25.38;26.26;99200.88;1726841;82;21677;-70
2022/05/17 05:18:54;;;;;;;1.10;1.00;;;;;;;25.75;25.60;99202.78;1729498;82;21006;-70
2022/05/17 05:21:21;;;;;;;6.17;4.78;;;;;;;26.08;25.14;99191.78;1729378;82;21031;-71
2022/05/17 05:23:47;;;;;;;6.00;5.37;;;;;;;26.31;24.77;99195.27;1728506;82;21062;-68
2022/05/17 05:26:14;;;;;;;4.95;3.45;;;;;;;26.56;24.67;99193.53;1721315;82;21112;-69
2022/05/17 05:28:41;;;;;;;3.30;1.77;;;;;;;26.68;24.47;99189.36;1722880;82;21477;-71
2022/05/17 05:31:09;;;;;;;2.37;1.42;;;;;;;26.81;24.13;99194.23;1762257;81;20942;-67
2022/05/17 05:33:36;;;;;;;2.65;1.75;;;;;;;26.68;23.61;99193.45;1732438;82;20943;-69
2022/05/17 05:36:04;;;;;;;3.87;1.90;;;;;;;26.62;23.56;99194.57;1715349;82;20967;-69
2022/05/17 05:38:31;;;;;;;5.22;2.30;;;;;;;26.57;23.87;99195.14;1707802;83;21200;-68
2022/05/17 05:40:59;;;;;;;6.10;3.17;;;;;;;26.58;23.98;99196.24;1708028;83;21533;-68
2022/05/17 05:43:25;;;;;;;7.28;5.55;;;;;;;26.69;23.90;99200.55;1709428;83;20991;-68
2022/05/17 05:45:52;;;;;;;11.93;5.92;;;;;;;26.66;23.70;99195.66;1705446;83;21006;-68
2022/05/17 05:48:19;;;;;;;14.63;7.05;;;;;;;26.74;23.39;99199.16;1704595;83;21110;-69
2022/05/17 05:50:47;;;;;;;17.17;9.00;;;;;;;26.82;23.38;99190.95;1707744;83;21614;-70
2022/05/17 05:53:14;;;;;;;13.62;8.55;;;;;;;26.96;22.99;99194.12;1708838;83;21494;-69
2022/05/17 05:55:41;;;;;;;17.73;9.08;;;;;;;27.01;22.76;99185.64;1708891;83;21027;-67
2022/05/17 05:58:10;;;;;;;10.08;7.10;;;;;;;27.17;22.55;99190.69;1707966;83;21583;-69
2022/05/17 06:00:38;;;;;;;10.60;5.95;;;;;;;27.28;22.41;99185.96;1707963;83;21035;-68
2022/05/17 06:03:05;;;;;;;20.45;9.90;;;;;;;27.33;22.32;99181.81;1707987;83;21183;-70
2022/05/17 06:05:34;;;;;;;8.70;5.10;;;;;;;27.39;22.14;99177.44;1708634;83;21525;-72
2022/05/17 06:08:00;;;;;;;4.97;3.33;;;;;;;27.41;22.08;99179.88;1708640;83;21032;-69
2022/05/17 06:10:28;;;;;;;4.25;2.22;;;;;;;27.41;22.15;99180.69;1707015;83;21112;-67
2022/05/17 06:12:56;;;;;;;3.00;1.70;;;;;;;27.48;22.09;99181.16;1707987;83;21627;-71
2022/05/17 06:15:23;;;;;;;2.77;1.42;;;;;;;27.66;22.03;99180.20;1707789;83;21205;-71
2022/05/17 06:17:50;;;;;;;3.10;2.00;;;;;;;28.04;21.71;99175.98;1707834;83;20991;-70
2022/05/17 06:20:17;;;;;;;2.37;1.50;;;;;;;28.33;21.23;99180.55;1704997;83;21009;-69
2022/05/17 06:22:43;;;;;;;3.20;1.67;;;;;;;28.56;21.17;99179.14;1709367;83;21007;-69
2022/05/17 06:25:11;;;;;;;3.92;1.72;;;;;;;28.82;20.97;99183.72;1709411;83;21035;-71
2022/05/17 06:27:39;;;;;;;5.12;1.80;;;;;;;29.00;20.57;99176.05;1703642;83;21587;-67
2022/05/17 06:30:07;;;;;;;2.90;2.70;;;;;;;29.38;20.41;99176.03;1708578;83;20900;-67
2022/05/17 06:32:34;;;;;;;2.50;1.50;;;;;;;29.51;20.32;99175.25;1710165;83;21045;-70
2022/05/17 06:35:00;;;;;;;5.03;1.30;;;;;;;29.68;20.34;99188.62;1711004;83;21084;-69
2022/05/17 06:37:27;;;;;;;1.37;1.00;;;;;;;29.72;20.12;99191.01;1716142;83;21114;-69
2022/05/17 06:39:54;;;;;;;2.62;1.07;;;;;;;30.12;19.55;99193.58;1716414;83;21264;-69
2022/05/17 06:42:20;;;;;;;1.52;1.05;;;;;;;30.23;19.20;99190.07;1718729;83;20994;-71
2022/05/17 06:44:47;;;;;;;2.15;1.37;;;;;;;30.08;19.18;99191.75;1719388;83;21464;-66
2022/05/17 06:47:13;;;;;;;2.27;1.42;;;;;;;30.24;18.97;99188.41;1725189;82;21003;-69
2022/05/17 06:49:40;;;;;;;2.33;0.90;;;;;;;30.36;19.16;99186.53;1713219;83;21029;-73
2022/05/17 06:52:09;;;;;;;1.70;1.10;;;;;;;30.58;19.05;99180.55;1719413;83;20947;-71
2022/05/17 06:54:36;;;;;;;4.92;1.07;;;;;;;30.99;18.52;99182.41;1719475;83;20927;-70
2022/05/17 06:57:06;;;;;;;3.37;0.98;;;;;;;31.38;18.39;99181.17;1719582;83;20979;-71
2022/05/17 06:59:34;;;;;;;1.95;1.07;;;;;;;31.79;18.12;99180.94;1719256;83;20947;-71
2022/05/17 07:02:01;;;;;;;2.50;1.25;;;;;;;32.24;17.73;99176.13;1727578;82;20978;-69
2022/05/17 07:04:28;;;;;;;8.63;2.20;;;;;;;32.58;17.34;99176.80;1719597;83;21144;-71
2022/05/17 07:06:58;;;;;;;4.17;2.40;;;;;;;32.93;17.30;99175.12;1719456;83;20959;-72
2022/05/17 07:09:27;;;;;;;4.75;2.83;;;;;;;33.30;16.68;99183.32;1719519;83;20974;-70
2022/05/17 07:14:40;;;;;;;4.30;2.15;;;;;;;33.83;16.29;99176.01;1717580;83;21285;-71
2022/05/17 07:17:13;;;;;;;4.60;3.25;;;;;;;34.27;16.02;99182.16;1716577;83;22282;-68
2022/05/17 07:19:40;;;;;;;5.28;3.40;;;;;;;34.66;15.77;99171.55;1716415;83;21559;-68
2022/05/17 07:22:07;;;;;;;5.08;3.60;;;;;;;34.97;15.26;99175.29;1716500;83;20975;-72
2022/05/17 07:24:36;;;;;;;4.75;3.22;;;;;;;35.24;15.00;99165.66;1716561;83;20891;-69
2022/05/17 07:27:04;;;;;;;2.87;1.60;;;;;;;35.43;14.99;99163.20;1716689;83;20995;-69
2022/05/17 07:29:31;;;;;;;2.92;1.40;;;;;;;35.71;14.45;99158.67;1716697;83;21607;-70
2022/05/17 07:31:58;;;;;;;2.25;0.95;;;;;;;36.00;14.28;99159.62;1716486;83;21011;-70
2022/05/17 07:34:27;;;;;;;5.17;1.37;;;;;;;36.31;14.22;99148.80;1716620;83;20904;-73
2022/05/17 07:36:54;;;;;;;5.47;0.90;;;;;;;36.73;14.23;99155.69;1716600;83;20904;-72
2022/05/17 07:39:21;;;;;;;1.98;1.30;;;;;;;37.17;13.60;99147.47;1716492;83;20916;-69
2022/05/17 07:41:49;;;;;;;1.45;1.10;;;;;;;37.35;13.24;99150.15;1716627;83;21884;-69
2022/05/17 07:44:16;;;;;;;3.90;1.20;;;;;;;37.42;13.00;99142.86;1716502;83;20924;-70
2022/05/17 07:46:43;;;;;;;4.80;1.00;;;;;;;37.47;12.78;99145.37;1716484;83;20944;-69
2022/05/17 07:49:10;;;;;;;6.65;0.95;;;;;;;37.54;12.80;99148.92;1716461;83;20959;-70
2022/05/17 07:51:36;;;;;;;1.27;0.80;;;;;;;37.59;12.45;99146.70;1716618;83;21406;-71
2022/05/17 07:54:03;;;;;;;2.15;1.80;;;;;;;37.61;12.25;99136.62;1716600;83;21138;-69
2022/05/17 07:56:31;;;;;;;3.02;1.90;;;;;;;37.53;12.31;99140.37;1716473;83;21010;-70
2022/05/17 07:58:57;;;;;;;3.67;2.60;;;;;;;37.64;12.41;99139.50;1718598;81;20997;-69
2022/05/17 08:01:23;;;;;;;3.77;2.17;;;;;;;37.76;12.12;99134.42;1717922;83;20875;-69
2022/05/17 08:03:51;;;;;;;2.35;0.90;;;;;;;37.83;12.08;99130.46;1716476;83;20947;-71
2022/05/17 08:06:18;;;;;;;3.00;1.40;;;;;;;37.85;11.76;99139.81;1716598;83;21267;-73
2022/05/17 08:08:46;;;;;;;3.00;0.90;;;;;;;37.76;11.85;99133.61;1716427;83;20943;-72
2022/05/17 08:11:13;;;;;;;2.37;1.30;;;;;;;37.83;11.86;99124.10;1708727;83;21542;-69
2022/05/17 08:13:41;;;;;;;1.60;0.93;;;;;;;37.92;12.05;99123.35;1716421;83;21017;-73
2022/05/17 08:16:08;;;;;;;2.40;0.80;;;;;;;38.24;11.90;99123.54;1716422;83;21481;-71
2022/05/17 08:18:34;;;;;;;2.25;1.07;;;;;;;38.58;11.64;99115.81;1716536;83;21893;-72
2022/05/17 08:21:01;;;;;;;2.45;0.82;;;;;;;38.92;11.59;99118.34;1716504;83;20943;-70
2022/05/17 08:23:28;;;;;;;3.15;0.88;;;;;;;39.30;11.17;99107.78;1716499;83;21029;-70
2022/05/17 08:28:40;;;;;;;4.47;0.50;;;;;;;39.18;10.67;99117.66;1716683;83;21031;-71
2022/05/17 08:31:06;;;;;;;1.40;0.72;;;;;;;39.10;10.71;99114.52;1716533;83;21322;-71
2022/05/17 08:33:35;;;;;;;1.47;0.70;;;;;;;39.12;10.77;99117.16;1716562;83;20947;-70
2022/05/17 08:36:05;;;;;;;1.60;0.62;;;;;;;39.08;10.72;99112.13;1714819;83;20912;-69
2022/05/17 08:38:42;;;;;;;1.02;0.50;;;;;;;39.18;10.85;99110.16;1708495;83;20968;-70
2022/05/17 08:41:27;;;;;;;2.15;0.45;;;;;;;39.38;10.65;99106.74;1708373;83;21003;-69
2022/05/17 08:43:57;;;;;;;2.08;0.60;;;;;;;39.52;10.72;99107.59;1708470;83;21233;-71
2022/05/17 08:46:49;;;;;;;2.45;0.65;;;;;;;39.87;10.28;99097.88;1708348;83;20970;-71
2022/05/17 08:49:23;;;;;;;2.10;0.50;;;;;;;40.13;10.24;99093.55;1708355;83;20927;-69
2022/05/17 08:52:07;;;;;;;4.45;0.57;;;;;;;40.48;9.98;99088.50;1708419;83;21501;-70
2022/05/17 08:54:38;;;;;;;1.65;0.60;;;;;;;40.54;9.71;99088.39;1707552;83;21462;-70
2022/05/17 08:57:29;;;;;;;6.03;0.80;;;;;;;40.68;9.50;99083.79;1708571;83;21167;-70
2022/05/17 09:00:16;;;;;;;1.60;0.50;;;;;;;40.24;9.56;99084.16;1708464;83;20861;-70
2022/05/17 09:02:52;;;;;;;2.92;0.40;;;;;;;40.52;9.11;99064.25;1703215;83;21602;-70
2022/05/17 09:05:25;;;;;;;1.07;0.70;;;;;;;40.46;9.29;99072.72;1707093;83;21106;-71
2022/05/17 09:08:25;;;;;;;2.55;0.60;;;;;;;40.54;9.22;99074.45;1708260;83;21043;-71
2022/05/17 09:11:38;;;;;;;0.90;0.55;;;;;;;40.54;9.30;99067.48;1711407;83;21904;-70
2022/05/17 09:14:18;;;;;;;1.90;0.55;;;;;;;40.80;9.04;99076.36;1719713;83;20994;-70
2022/05/17 09:16:47;;;;;;;2.47;0.60;;;;;;;41.22;8.83;99070.67;1683440;83;20995;-69
2022/05/17 09:19:15;;;;;;;0.82;0.40;;;;;;;41.63;8.38;99063.72;1711460;83;21012;-70
2022/05/17 09:21:44;;;;;;;2.47;0.50;;;;;;;41.87;8.15;99067.92;1710991;83;21014;-70
2022/05/17 09:24:18;;;;;;;3.67;0.70;;;;;;;42.08;7.85;99061.90;1711701;83;21972;-69
2022/05/17 09:26:49;;;;;;;1.87;0.47;;;;;;;41.96;7.71;99066.98;1720909;82;20931;-68
2022/05/17 09:29:29;;;;;;;3.98;0.60;;;;;;;41.73;7.73;99058.84;1716617;83;21302;-70
2022/05/17 09:32:03;;;;;;;;;;;;;;;41.67;8.00;99057.55;1718857;83;42617;-72
2022/05/17 09:34:43;;;;;;;1.17;0.40;;;;;;;41.57;8.15;99054.89;1703360;84;20106;-69
2022/05/17 09:37:16;;;;;;;2.62;0.50;;;;;;;41.81;7.84;99054.33;1705851;83;20939;-70
2022/05/17 09:39:46;;;;;;;4.55;0.50;;;;;;;40.76;8.32;99055.98;1716351;83;20935;-72
2022/05/17 09:42:38;;;;;;;4.30;0.80;;;;;;;40.44;8.54;99050.78;1716250;83;20900;-70
2022/05/17 09:45:09;;;;;;;3.58;0.55;;;;;;;40.70;8.54;99044.40;1714815;83;20980;-68
2022/05/17 09:47:57;;;;;;;2.47;0.95;;;;;;;40.74;8.33;99048.02;1716473;83;20947;-70
2022/05/17 09:53:17;;;;;;;4.33;0.62;;;;;;;40.70;8.06;99047.19;1716309;83;21560;-70
2022/05/17 09:55:51;;;;;;;6.05;1.07;;;;;;;40.39;8.30;99043.34;1716351;83;21559;-70
2022/05/17 09:58:36;;;;;;;2.98;0.85;;;;;;;40.20;8.59;99042.92;1715357;83;20912;-68
2022/05/17 10:01:22;;;;;;;5.78;0.82;;;;;;;40.25;8.64;99043.17;1716498;83;20939;-71
2022/05/17 10:04:14;;;;;;;3.75;0.70;;;;;;;40.26;8.38;99053.15;1687680;83;21142;-72
2022/05/17 10:06:44;;;;;;;5.22;0.53;;;;;;;39.02;8.43;99055.77;1709364;81;21047;-70
2022/05/17 10:09:33;;;;;;;4.10;0.68;;;;;;;35.75;10.01;99046.15;1727423;82;21003;-69
2022/05/17 10:12:16;;;;;;;5.37;0.80;;;;;;;34.19;10.87;99055.48;1710365;83;20931;-72
2022/05/17 10:14:52;;;;;;;2.72;0.60;;;;;;;33.10;11.87;99052.30;1714914;83;21535;-72
2022/05/17 10:17:44;;;;;;;7.42;1.12;;;;;;;32.33;12.45;99059.42;1727529;83;21139;-71
2022/05/17 10:20:17;;;;;;;3.22;0.50;;;;;;;31.63;12.63;99053.25;1719333;83;20978;-72
2022/05/17 10:23:09;;;;;;;2.87;0.53;;;;;;;30.68;13.32;99046.94;1727518;83;20903;-68
2022/05/17 10:25:46;;;;;;;3.98;0.60;;;;;;;29.89;13.91;99047.89;1719693;83;20955;-71
2022/05/17 10:28:21;;;;;;;2.08;0.53;;;;;;;29.10;14.49;99061.42;1719692;83;20986;-70
2022/05/17 10:30:58;;;;;;;6.33;0.70;;;;;;;28.43;14.72;99058.67;1728469;81;22009;-70
2022/05/17 10:33:35;;;;;;;8.18;0.93;;;;;;;27.89;15.54;99056.41;1718860;83;20959;-70
2022/05/17 10:36:08;;;;;;;2.55;0.70;;;;;;;27.56;15.72;99050.77;1719669;83;20947;-72
2022/05/17 10:38:38;;;;;;;1.50;0.60;;;;;;;27.25;16.08;99045.90;1730100;82;20958;-68
2022/05/17 10:41:09;;;;;;;1.47;0.55;;;;;;;27.10;16.44;99040.59;1733531;81;21725;-72
2022/05/17 10:43:39;;;;;;;1.35;0.42;;;;;;;26.86;16.26;99037.82;1733068;82;21858;-70
2022/05/17 10:46:18;;;;;;;6.58;0.80;;;;;;;26.62;16.55;99043.17;1733077;82;20934;-69
2022/05/17 10:49:00;;;;;;;5.80;0.62;;;;;;;26.39;16.77;99030.25;1733722;81;21499;-69
2022/05/17 10:51:56;;;;;;;9.98;1.02;;;;;;;26.15;16.82;99028.77;1733025;82;20966;-73
2022/05/17 10:54:40;;;;;;;5.05;0.70;;;;;;;25.91;16.91;99031.08;1732990;82;20927;-69
2022/05/17 10:57:45;;;;;;;4.15;0.50;;;;;;;25.66;17.37;99045.62;1733253;82;21168;-70
2022/05/17 11:00:18;;;;;;;6.72;1.10;;;;;;;25.55;17.71;99036.67;1733717;81;20903;-70
2022/05/17 11:03:07;;;;;;;6.58;0.90;;;;;;;25.43;17.71;99032.06;1733193;82;21095;-71
2022/05/17 11:05:50;;;;;;;12.58;1.17;;;;;;;25.32;17.84;99034.53;1732615;82;20978;-70
2022/05/17 11:08:27;;;;;;;10.00;1.40;;;;;;;25.18;17.84;99043.02;1733259;82;21377;-71
2022/05/17 11:11:13;;;;;;;7.78;1.80;;;;;;;25.09;18.26;99035.95;1733085;82;21441;-69
2022/05/17 11:13:58;;;;;;;8.80;0.82;;;;;;;24.99;18.10;99040.05;1733372;82;20994;-69
2022/05/17 11:16:57;;;;;;;7.72;1.02;;;;;;;24.84;18.04;99037.89;1733112;82;21068;-69
2022/05/17 11:19:44;;;;;;;3.75;0.60;;;;;;;24.74;18.47;99045.46;1732996;82;20970;-71
2022/05/17 11:22:34;;;;;;;2.17;0.62;;;;;;;24.63;18.42;99026.17;1732979;82;20978;-71
2022/05/17 11:25:40;;;;;;;2.45;0.57;;;;;;;24.45;18.39;99032.98;1733210;82;21770;-71
2022/05/17 11:28:36;;;;;;;7.25;1.32;;;;;;;24.27;18.43;99037.55;1733182;82;20860;-70
2022/05/17 11:31:36;;;;;;;3.08;0.68;;;;;;;24.06;18.37;99030.43;1731745;82;21002;-70
2022/05/17 11:34:24;;;;;;;2.67;0.50;;;;;;;23.84;18.69;99029.27;1733068;82;20998;-68
2022/05/17 11:36:56;;;;;;;3.72;0.68;;;;;;;23.73;19.32;99022.70;1716881;82;21018;-72
2022/05/17 11:39:41;;;;;;;2.52;0.53;;;;;;;23.73;19.33;99014.55;1711600;83;21338;-70
2022/05/17 11:42:14;;;;;;;2.17;0.60;;;;;;;23.74;19.51;99018.37;1720616;82;20972;-69
2022/05/17 11:44:48;;;;;;;4.85;0.75;;;;;;;23.75;19.58;99018.63;1720114;83;21002;-72
2022/05/17 11:47:37;;;;;;;6.33;0.60;;;;;;;23.79;19.38;99018.93;1711671;83;21019;-68
2022/05/17 11:50:29;;;;;;;2.02;0.60;;;;;;;23.72;18.96;99014.30;1720089;82;21025;-70
2022/05/17 11:53:27;;;;;;;2.65;0.50;;;;;;;23.61;19.20;99012.63;1711334;83;21838;-70
2022/05/17 11:56:29;;;;;;;3.20;0.53;;;;;;;23.53;19.35;99018.55;1719764;83;20951;-70
2022/05/17 11:59:13;;;;;;;2.90;0.53;;;;;;;23.48;19.27;99004.97;1711474;82;20935;-70
2022/05/17 12:01:44;;;;;;;2.90;0.60;;;;;;;23.34;19.17;99011.38;1711845;83;21002;-68
2022/05/17 12:04:36;;;;;;;2.27;0.47;;;;;;;23.24;19.08;99005.90;1711588;83;21470;-68
2022/05/17 12:07:25;;;;;;;2.72;0.62;;;;;;;23.16;19.38;99007.75;1711629;83;20955;-72